createdAt,value
2023-03-30T00:00:27.677Z,0.73
2023-03-30T00:01:27.670Z,0.71
2023-03-30T00:02:27.788Z,0.72
2023-03-30T00:03:27.981Z,0.73
2023-03-30T00:04:27.986Z,0.73
2023-03-30T00:05:27.851Z,0.74
2023-03-30T00:06:27.916Z,0.74
2023-03-30T00:07:27.991Z,0.73
2023-03-30T00:08:28.153Z,0.73
2023-03-30T00:09:28.094Z,0.73
2023-03-30T00:10:28.164Z,0.73
2023-03-30T00:11:28.209Z,0.73
2023-03-30T00:12:28.262Z,0.72
2023-03-30T00:13:28.293Z,0.73
2023-03-30T00:14:28.334Z,0.73
2023-03-30T00:15:28.336Z,0.73
2023-03-30T00:16:28.455Z,0.73
2023-03-30T00:17:28.533Z,0.73
2023-03-30T00:18:28.575Z,0.73
2023-03-30T00:19:28.565Z,0.74
2023-03-30T00:20:28.654Z,0.72
2023-03-30T00:21:28.687Z,0.72
2023-03-30T00:22:28.737Z,0.72
2023-03-30T00:23:28.792Z,0.73
2023-03-30T00:24:28.807Z,0.73
2023-03-30T00:25:28.870Z,0.74
2023-03-30T00:26:28.893Z,0.73
2023-03-30T00:27:28.982Z,0.72
2023-03-30T00:28:29.092Z,0.72
2023-03-30T00:29:29.083Z,0.73
2023-03-30T00:30:29.169Z,0.73
2023-03-30T00:31:29.197Z,0.72
2023-03-30T00:32:29.277Z,0.71
2023-03-30T00:33:44.138Z,0.74
2023-03-30T00:34:30.259Z,0.74
2023-03-30T00:35:29.238Z,0.74
2023-03-30T00:36:29.245Z,0.74
2023-03-30T00:37:29.249Z,0.74
2023-03-30T00:38:29.331Z,0.72
2023-03-30T00:39:29.281Z,0.73
2023-03-30T00:40:29.370Z,0.73
2023-03-30T00:41:29.439Z,0.73
2023-03-30T00:42:29.487Z,0.75
2023-03-30T00:43:29.503Z,0.73
2023-03-30T00:44:29.561Z,0.72
2023-03-30T00:45:29.606Z,0.70
2023-03-30T00:46:29.798Z,0.73
2023-03-30T00:47:29.732Z,0.71
2023-03-30T00:48:29.764Z,0.72
2023-03-30T00:49:29.846Z,0.73
2023-03-30T00:50:29.871Z,0.73
2023-03-30T00:51:29.909Z,0.72
2023-03-30T00:52:29.958Z,0.71
2023-03-30T00:53:30.029Z,0.72
2023-03-30T00:54:30.090Z,0.70
2023-03-30T00:55:30.126Z,0.73
2023-03-30T00:56:30.195Z,0.73
2023-03-30T00:57:30.275Z,0.72
2023-03-30T00:58:30.270Z,0.73
2023-03-30T00:59:30.314Z,0.72
2023-03-30T01:00:30.375Z,0.71
2023-03-30T01:01:30.463Z,0.73
2023-03-30T01:02:30.664Z,0.71
2023-03-30T01:03:30.662Z,0.72
2023-03-30T01:04:30.626Z,0.72
2023-03-30T01:05:30.674Z,0.72
2023-03-30T01:06:30.685Z,0.73
2023-03-30T01:07:30.788Z,0.72
2023-03-30T01:08:30.812Z,0.72
2023-03-30T01:09:30.866Z,0.73
2023-03-30T01:10:30.918Z,0.72
2023-03-30T01:11:30.974Z,0.71
2023-03-30T01:12:31.027Z,0.71
2023-03-30T01:13:31.094Z,0.73
2023-03-30T01:14:31.137Z,0.72
2023-03-30T01:15:31.246Z,0.73
2023-03-30T01:16:31.213Z,0.72
2023-03-30T01:17:31.266Z,0.72
2023-03-30T01:18:31.373Z,0.72
2023-03-30T01:19:31.384Z,0.72
2023-03-30T01:20:31.442Z,0.73
2023-03-30T01:21:31.496Z,0.70
2023-03-30T01:22:31.569Z,0.72
2023-03-30T01:23:31.600Z,0.73
2023-03-30T01:24:31.615Z,0.73
2023-03-30T01:25:31.715Z,0.70
2023-03-30T01:26:31.785Z,0.73
2023-03-30T01:27:31.810Z,0.71
2023-03-30T01:28:31.866Z,0.72
2023-03-30T01:29:31.929Z,0.72
2023-03-30T01:30:31.982Z,0.73
2023-03-30T01:31:32.075Z,0.71
2023-03-30T01:32:32.067Z,0.71
2023-03-30T01:33:32.150Z,0.71
2023-03-30T01:34:32.219Z,0.72
2023-03-30T01:35:32.281Z,0.72
2023-03-30T01:36:32.298Z,0.71
2023-03-30T01:37:32.357Z,0.71
2023-03-30T01:38:32.396Z,0.70
2023-03-30T01:39:32.389Z,0.72
2023-03-30T01:40:32.508Z,0.74
2023-03-30T01:41:32.547Z,0.74
2023-03-30T01:42:32.590Z,0.72
2023-03-30T01:43:32.660Z,0.71
2023-03-30T01:44:32.704Z,0.73
2023-03-30T01:45:32.787Z,0.72
2023-03-30T01:46:32.872Z,0.71
2023-03-30T01:47:32.902Z,0.72
2023-03-30T01:48:32.969Z,0.72
2023-03-30T01:49:32.975Z,0.71
2023-03-30T01:50:33.046Z,0.73
2023-03-30T01:51:33.092Z,0.72
2023-03-30T01:52:33.162Z,0.72
2023-03-30T01:53:33.200Z,0.71
2023-03-30T01:54:33.269Z,0.71
2023-03-30T01:55:33.360Z,0.72
2023-03-30T01:56:33.388Z,0.72
2023-03-30T01:57:33.442Z,0.70
2023-03-30T01:58:33.483Z,0.72
2023-03-30T01:59:33.528Z,0.71
2023-03-30T02:00:33.593Z,0.73
2023-03-30T02:01:33.722Z,0.71
2023-03-30T02:02:33.847Z,0.73
2023-03-30T02:03:33.854Z,0.70
2023-03-30T02:04:33.808Z,0.71
2023-03-30T02:05:33.893Z,0.70
2023-03-30T02:06:33.899Z,0.72
2023-03-30T02:07:33.975Z,0.72
2023-03-30T02:08:34.026Z,0.71
2023-03-30T02:09:34.128Z,0.71
2023-03-30T02:10:34.182Z,0.72
2023-03-30T02:11:34.229Z,0.72
2023-03-30T02:12:34.277Z,0.70
2023-03-30T02:13:34.313Z,0.71
2023-03-30T02:14:34.422Z,0.70
2023-03-30T02:15:34.463Z,0.70
2023-03-30T02:16:34.605Z,0.71
2023-03-30T02:17:34.670Z,0.72
2023-03-30T02:18:34.679Z,0.73
2023-03-30T02:19:34.691Z,0.73
2023-03-30T02:20:34.781Z,0.72
2023-03-30T02:21:34.795Z,0.73
2023-03-30T02:22:34.880Z,0.71
2023-03-30T02:23:34.918Z,0.72
2023-03-30T02:24:34.996Z,0.71
2023-03-30T02:25:35.041Z,0.72
2023-03-30T02:26:35.098Z,0.72
2023-03-30T02:27:35.140Z,0.72
2023-03-30T02:28:35.261Z,0.71
2023-03-30T02:29:35.269Z,0.71
2023-03-30T02:30:35.339Z,0.72
2023-03-30T02:31:35.398Z,0.72
2023-03-30T02:32:35.482Z,0.71
2023-03-30T02:33:35.488Z,0.72
2023-03-30T02:34:35.601Z,0.72
2023-03-30T02:35:35.726Z,0.72
2023-03-30T02:36:35.686Z,0.73
2023-03-30T02:37:35.763Z,0.71
2023-03-30T02:38:35.812Z,0.71
2023-03-30T02:39:35.881Z,0.71
2023-03-30T02:40:35.918Z,0.72
2023-03-30T02:41:36.045Z,0.72
2023-03-30T02:42:36.084Z,0.71
2023-03-30T02:43:36.173Z,0.72
2023-03-30T02:44:36.170Z,0.71
2023-03-30T02:45:36.245Z,0.71
2023-03-30T02:46:36.314Z,0.71
2023-03-30T02:47:36.419Z,0.70
2023-03-30T02:48:36.446Z,0.71
2023-03-30T02:49:36.460Z,0.72
2023-03-30T02:50:36.571Z,0.72
2023-03-30T02:51:36.615Z,0.72
2023-03-30T02:52:36.726Z,0.72
2023-03-30T02:53:36.725Z,0.73
2023-03-30T02:54:36.742Z,0.72
2023-03-30T02:55:36.811Z,0.72
2023-03-30T02:56:36.855Z,0.71
2023-03-30T02:57:36.917Z,0.70
2023-03-30T02:58:37.010Z,0.69
2023-03-30T02:59:37.030Z,0.71
2023-03-30T03:00:37.121Z,0.71
2023-03-30T03:01:37.182Z,0.71
2023-03-30T03:02:37.310Z,0.70
2023-03-30T03:03:37.488Z,0.71
2023-03-30T03:04:37.306Z,0.71
2023-03-30T03:05:37.422Z,0.72
2023-03-30T03:06:37.477Z,0.70
2023-03-30T03:07:37.546Z,0.70
2023-03-30T03:08:37.611Z,0.72
2023-03-30T03:09:37.663Z,0.71
2023-03-30T03:10:37.708Z,0.71
2023-03-30T03:11:37.758Z,0.71
2023-03-30T03:12:37.824Z,0.70
2023-03-30T03:13:37.907Z,0.70
2023-03-30T03:14:37.931Z,0.71
2023-03-30T03:15:38.018Z,0.71
2023-03-30T03:16:38.068Z,0.71
2023-03-30T03:17:38.108Z,0.73
2023-03-30T03:18:38.194Z,0.70
2023-03-30T03:19:38.229Z,0.70
2023-03-30T03:20:38.304Z,0.70
2023-03-30T03:21:38.319Z,0.71
2023-03-30T03:22:38.364Z,0.72
2023-03-30T03:23:38.426Z,0.70
2023-03-30T03:24:38.473Z,0.70
2023-03-30T03:25:38.524Z,0.71
2023-03-30T03:26:38.596Z,0.71
2023-03-30T03:27:38.624Z,0.71
2023-03-30T03:28:38.706Z,0.71
2023-03-30T03:29:38.759Z,0.71
2023-03-30T03:30:38.908Z,0.71
2023-03-30T03:31:38.898Z,0.71
2023-03-30T03:32:38.964Z,0.73
2023-03-30T03:33:38.982Z,0.70
2023-03-30T03:34:39.047Z,0.71
2023-03-30T03:35:39.192Z,0.71
2023-03-30T03:36:39.172Z,0.70
2023-03-30T03:37:39.199Z,0.69
2023-03-30T03:38:39.241Z,0.72
2023-03-30T03:39:39.326Z,0.71
2023-03-30T03:40:39.363Z,0.70
2023-03-30T03:41:39.411Z,0.71
2023-03-30T03:42:39.480Z,0.72
2023-03-30T03:43:39.519Z,0.70
2023-03-30T03:44:39.569Z,0.71
2023-03-30T03:45:39.636Z,0.70
2023-03-30T03:46:39.722Z,0.70
2023-03-30T03:47:39.783Z,0.72
2023-03-30T03:48:39.804Z,0.69
2023-03-30T03:49:39.850Z,0.71
2023-03-30T03:50:39.919Z,0.71
2023-03-30T03:51:39.946Z,0.70
2023-03-30T03:52:40.036Z,0.70
2023-03-30T03:53:40.072Z,0.70
2023-03-30T03:54:40.128Z,0.71
2023-03-30T03:55:40.162Z,0.72
2023-03-30T03:56:40.260Z,0.70
2023-03-30T03:57:40.237Z,0.71
2023-03-30T03:58:40.287Z,0.71
2023-03-30T03:59:40.342Z,0.71
2023-03-30T04:00:40.418Z,0.71
2023-03-30T04:01:40.537Z,0.71
2023-03-30T04:02:40.625Z,0.71
2023-03-30T04:03:40.584Z,0.71
2023-03-30T04:04:40.636Z,0.71
2023-03-30T04:05:40.694Z,0.71
2023-03-30T04:06:40.736Z,0.69
2023-03-30T04:07:40.808Z,0.69
2023-03-30T04:08:40.886Z,0.69
2023-03-30T04:09:40.934Z,0.69
2023-03-30T04:10:41.031Z,0.69
2023-03-30T04:11:41.041Z,0.69
2023-03-30T04:12:41.098Z,0.68
2023-03-30T04:13:41.119Z,0.68
2023-03-30T04:14:41.204Z,0.68
2023-03-30T04:15:41.291Z,0.68
2023-03-30T04:16:41.361Z,0.65
2023-03-30T04:17:41.406Z,0.66
2023-03-30T04:18:41.447Z,0.65
2023-03-30T04:19:41.491Z,0.64
2023-03-30T04:20:41.555Z,0.65
2023-03-30T04:21:41.630Z,0.63
2023-03-30T04:22:41.739Z,0.63
2023-03-30T04:23:41.738Z,0.63
2023-03-30T04:24:41.774Z,0.60
2023-03-30T04:25:41.835Z,0.61
2023-03-30T04:26:41.912Z,0.61
2023-03-30T04:27:41.921Z,0.60
2023-03-30T04:28:42.040Z,0.61
2023-03-30T04:29:42.049Z,0.59
2023-03-30T04:30:42.113Z,0.58
2023-03-30T04:31:42.223Z,0.59
2023-03-30T04:32:42.224Z,0.58
2023-03-30T04:33:42.328Z,0.58
2023-03-30T04:34:42.334Z,0.58
2023-03-30T04:35:42.388Z,0.58
2023-03-30T04:36:42.443Z,0.57
2023-03-30T04:37:42.529Z,0.58
2023-03-30T04:38:42.557Z,0.55
2023-03-30T04:39:42.612Z,0.56
2023-03-30T04:40:42.662Z,0.56
2023-03-30T04:41:42.721Z,0.55
2023-03-30T04:42:42.800Z,0.56
2023-03-30T04:43:42.802Z,0.57
2023-03-30T04:44:42.868Z,0.55
2023-03-30T04:45:42.965Z,0.56
2023-03-30T04:46:42.975Z,0.56
2023-03-30T04:47:43.003Z,0.57
2023-03-30T04:48:42.997Z,0.55
2023-03-30T04:49:43.102Z,0.54
2023-03-30T04:50:43.056Z,0.55
2023-03-30T04:51:43.125Z,0.56
2023-03-30T04:52:43.164Z,0.56
2023-03-30T04:53:43.225Z,0.56
2023-03-30T04:54:43.285Z,0.55
2023-03-30T04:55:43.302Z,0.55
2023-03-30T04:56:43.379Z,0.54
2023-03-30T04:57:43.373Z,0.54
2023-03-30T04:58:43.419Z,0.56
2023-03-30T04:59:43.497Z,0.54
2023-03-30T05:00:43.492Z,0.54
2023-03-30T05:01:43.641Z,0.53
2023-03-30T05:02:43.690Z,0.55
2023-03-30T05:03:43.691Z,0.55
2023-03-30T05:04:43.708Z,0.55
2023-03-30T05:05:43.731Z,0.54
2023-03-30T05:06:43.825Z,0.55
2023-03-30T05:07:43.836Z,0.54
2023-03-30T05:08:43.906Z,0.55
2023-03-30T05:09:43.906Z,0.55
2023-03-30T05:10:44.025Z,0.55
2023-03-30T05:11:44.013Z,0.56
2023-03-30T05:12:44.037Z,0.55
2023-03-30T05:13:44.054Z,0.56
2023-03-30T05:14:44.117Z,0.56
2023-03-30T05:15:44.198Z,0.56
2023-03-30T05:16:44.287Z,0.55
2023-03-30T05:17:44.363Z,0.55
2023-03-30T05:18:44.323Z,0.56
2023-03-30T05:19:44.374Z,0.56
2023-03-30T05:20:44.396Z,0.55
2023-03-30T05:21:44.465Z,0.57
2023-03-30T05:22:44.504Z,0.56
2023-03-30T05:23:44.603Z,0.55
2023-03-30T05:24:44.576Z,0.56
2023-03-30T05:25:44.620Z,0.56
2023-03-30T05:26:44.632Z,0.55
2023-03-30T05:27:44.703Z,0.56
2023-03-30T05:28:44.733Z,0.56
2023-03-30T05:29:44.788Z,0.55
2023-03-30T05:30:44.852Z,0.55
2023-03-30T05:31:44.982Z,0.56
2023-03-30T05:32:44.928Z,0.56
2023-03-30T05:33:44.894Z,0.57
2023-03-30T05:34:45.120Z,0.55
2023-03-30T05:35:44.948Z,0.56
2023-03-30T05:36:44.925Z,0.58
2023-03-30T05:37:45.417Z,0.68
2023-03-30T05:38:45.019Z,0.65
2023-03-30T05:39:45.017Z,0.66
2023-03-30T05:40:45.058Z,0.68
2023-03-30T05:41:45.145Z,0.71
2023-03-30T05:42:45.193Z,0.76
2023-03-30T05:43:45.219Z,0.79
2023-03-30T05:44:45.332Z,0.77
2023-03-30T05:45:45.319Z,0.81
2023-03-30T05:46:45.437Z,0.80
2023-03-30T05:47:45.970Z,0.80
2023-03-30T05:48:45.494Z,0.80
2023-03-30T05:49:45.552Z,0.81
2023-03-30T05:50:45.550Z,0.80
2023-03-30T05:51:45.656Z,0.82
2023-03-30T05:52:45.730Z,0.82
2023-03-30T05:53:45.734Z,0.83
2023-03-30T05:54:45.777Z,0.83
2023-03-30T05:55:45.863Z,0.85
2023-03-30T05:56:45.989Z,0.87
2023-03-30T05:57:45.992Z,0.86
2023-03-30T05:58:46.076Z,0.88
2023-03-30T05:59:46.075Z,0.86
2023-03-30T06:00:46.123Z,0.85
2023-03-30T06:01:46.232Z,0.83
2023-03-30T06:02:46.406Z,0.85
2023-03-30T06:03:46.515Z,0.87
2023-03-30T06:04:46.409Z,0.87
2023-03-30T06:05:46.451Z,0.88
2023-03-30T06:06:46.496Z,0.89
2023-03-30T06:07:46.779Z,0.88
2023-03-30T06:08:46.661Z,0.88
2023-03-30T06:09:46.663Z,0.88
2023-03-30T06:10:46.672Z,0.89
2023-03-30T06:11:46.697Z,0.88
2023-03-30T06:12:46.780Z,0.88
2023-03-30T06:13:46.897Z,0.88
2023-03-30T06:14:46.901Z,0.87
2023-03-30T06:15:46.961Z,0.88
2023-03-30T06:16:46.982Z,0.88
2023-03-30T06:17:47.034Z,0.88
2023-03-30T06:18:46.999Z,0.89
2023-03-30T06:19:47.077Z,0.89
2023-03-30T06:20:47.139Z,0.87
2023-03-30T06:21:47.191Z,0.87
2023-03-30T06:22:47.266Z,0.89
2023-03-30T06:23:47.311Z,0.88
2023-03-30T06:24:47.305Z,0.90
2023-03-30T06:25:47.328Z,0.88
2023-03-30T06:26:47.522Z,0.88
2023-03-30T06:27:47.456Z,0.86
2023-03-30T06:28:47.507Z,0.87
2023-03-30T06:29:47.513Z,0.86
2023-03-30T06:30:47.562Z,0.86
2023-03-30T06:31:47.660Z,0.89
2023-03-30T06:32:47.705Z,0.87
2023-03-30T06:33:47.678Z,0.88
2023-03-30T06:34:47.757Z,0.87
2023-03-30T06:35:47.912Z,0.88
2023-03-30T06:36:47.952Z,0.93
2023-03-30T06:37:47.877Z,0.87
2023-03-30T06:38:48.493Z,0.87
2023-03-30T06:39:47.991Z,0.89
2023-03-30T06:40:48.048Z,0.90
2023-03-30T06:41:48.341Z,0.90
2023-03-30T06:42:48.152Z,0.89
2023-03-30T06:43:48.979Z,0.90
2023-03-30T06:44:49.964Z,0.90
2023-03-30T06:45:48.334Z,0.90
2023-03-30T06:46:48.357Z,0.89
2023-03-30T06:47:48.370Z,0.88
2023-03-30T06:48:48.420Z,0.88
2023-03-30T06:49:48.463Z,0.87
2023-03-30T06:50:48.483Z,0.85
2023-03-30T06:51:48.469Z,0.85
2023-03-30T06:52:48.605Z,0.84
2023-03-30T06:53:48.609Z,0.82
2023-03-30T06:54:48.642Z,0.78
2023-03-30T06:55:48.759Z,0.77
2023-03-30T06:56:48.763Z,0.75
2023-03-30T06:57:48.937Z,0.75
2023-03-30T06:58:48.966Z,0.73
2023-03-30T06:59:48.959Z,0.74
2023-03-30T07:00:49.182Z,0.74
2023-03-30T07:01:49.153Z,0.74
2023-03-30T07:02:49.134Z,0.72
2023-03-30T07:03:49.256Z,0.71
2023-03-30T07:04:49.453Z,0.72
2023-03-30T07:05:49.480Z,0.70
2023-03-30T07:06:49.321Z,0.69
2023-03-30T07:07:49.461Z,0.69
2023-03-30T07:08:49.462Z,0.69
2023-03-30T07:09:49.562Z,0.68
2023-03-30T07:10:49.553Z,0.65
2023-03-30T07:11:49.585Z,0.64
2023-03-30T07:12:49.656Z,0.64
2023-03-30T07:13:49.663Z,0.65
2023-03-30T07:14:49.671Z,0.67
2023-03-30T07:15:49.696Z,0.64
2023-03-30T07:16:49.714Z,0.64
2023-03-30T07:17:49.735Z,0.65
2023-03-30T07:18:49.692Z,0.64
2023-03-30T07:19:49.801Z,0.65
2023-03-30T07:20:49.909Z,0.65
2023-03-30T07:21:49.897Z,0.66
2023-03-30T07:22:49.947Z,0.66
2023-03-30T07:23:50.034Z,0.65
2023-03-30T07:24:49.991Z,0.67
2023-03-30T07:25:50.266Z,0.66
2023-03-30T07:26:50.100Z,0.66
2023-03-30T07:27:50.294Z,0.67
2023-03-30T07:28:50.276Z,0.67
2023-03-30T07:29:50.217Z,0.67
2023-03-30T07:30:50.301Z,0.69
2023-03-30T07:31:50.342Z,0.70
2023-03-30T07:32:50.521Z,0.77
2023-03-30T07:33:50.455Z,0.85
2023-03-30T07:34:50.491Z,0.88
2023-03-30T07:35:50.604Z,0.92
2023-03-30T07:36:50.574Z,0.94
2023-03-30T07:37:51.251Z,0.91
2023-03-30T07:38:50.643Z,0.96
2023-03-30T07:39:50.782Z,0.95
2023-03-30T07:40:50.777Z,0.96
2023-03-30T07:41:50.779Z,0.98
2023-03-30T07:42:50.831Z,0.97
2023-03-30T07:43:50.932Z,0.99
2023-03-30T07:44:50.904Z,1.01
2023-03-30T07:45:50.964Z,1.01
2023-03-30T07:46:51.073Z,1.01
2023-03-30T07:47:51.091Z,1.00
2023-03-30T07:48:51.020Z,1.02
2023-03-30T07:49:51.135Z,1.02
2023-03-30T07:50:51.149Z,1.04
2023-03-30T07:51:51.089Z,1.05
2023-03-30T07:52:51.164Z,1.05
2023-03-30T07:53:51.158Z,1.06
2023-03-30T07:54:51.272Z,1.06
2023-03-30T07:55:51.187Z,1.06
2023-03-30T07:56:51.236Z,1.05
2023-03-30T07:57:51.224Z,1.09
2023-03-30T07:58:51.306Z,1.09
2023-03-30T07:59:51.306Z,1.08
2023-03-30T08:00:51.321Z,1.08
2023-03-30T08:01:51.322Z,1.08
2023-03-30T08:02:51.413Z,1.09
2023-03-30T08:03:51.414Z,1.10
2023-03-30T08:04:51.521Z,1.10
2023-03-30T08:05:51.367Z,1.09
2023-03-30T08:06:51.349Z,1.09
2023-03-30T08:07:51.396Z,1.10
2023-03-30T08:08:51.470Z,1.09
2023-03-30T08:09:51.370Z,1.11
2023-03-30T08:10:51.371Z,1.14
2023-03-30T08:11:51.395Z,1.13
2023-03-30T08:12:51.495Z,1.13
2023-03-30T08:13:51.541Z,1.15
2023-03-30T08:14:51.403Z,1.14
2023-03-30T08:15:52.937Z,1.17
2023-03-30T08:16:51.427Z,1.18
2023-03-30T08:17:51.440Z,1.21
2023-03-30T08:18:51.550Z,1.26
2023-03-30T08:19:51.549Z,1.27
2023-03-30T08:20:51.656Z,1.25
2023-03-30T08:21:51.697Z,1.26
2023-03-30T08:22:51.752Z,1.26
2023-03-30T08:23:51.788Z,1.25
2023-03-30T08:24:51.885Z,1.27
2023-03-30T08:25:52.064Z,1.28
2023-03-30T08:26:52.058Z,1.23
2023-03-30T08:27:52.002Z,1.24
2023-03-30T08:28:52.105Z,1.23
2023-03-30T08:29:52.145Z,1.22
2023-03-30T08:30:52.230Z,1.19
2023-03-30T08:31:52.288Z,1.20
2023-03-30T08:32:52.403Z,1.18
2023-03-30T08:33:52.357Z,1.14
2023-03-30T08:34:52.361Z,1.12
2023-03-30T08:35:52.513Z,1.07
2023-03-30T08:36:52.453Z,1.03
2023-03-30T08:37:52.464Z,1.03
2023-03-30T08:38:52.536Z,1.00
2023-03-30T08:39:52.511Z,0.95
2023-03-30T08:40:52.530Z,0.94
2023-03-30T08:41:52.516Z,0.93
2023-03-30T08:42:52.619Z,0.84
2023-03-30T08:43:52.563Z,0.81
2023-03-30T08:44:52.566Z,0.81
2023-03-30T08:45:52.733Z,0.82
2023-03-30T08:46:52.645Z,0.87
2023-03-30T08:47:52.826Z,0.87
2023-03-30T08:48:52.647Z,0.85
2023-03-30T08:49:52.713Z,0.85
2023-03-30T08:50:52.688Z,0.85
2023-03-30T08:51:52.729Z,0.89
2023-03-30T08:52:52.781Z,0.90
2023-03-30T08:53:54.636Z,0.91
2023-03-30T08:54:52.792Z,0.92
2023-03-30T08:55:52.719Z,0.92
2023-03-30T08:56:52.781Z,0.94
2023-03-30T08:57:54.179Z,0.97
2023-03-30T08:58:53.890Z,1.05
2023-03-30T08:59:52.745Z,1.08
2023-03-30T09:00:52.832Z,1.09
2023-03-30T09:01:54.619Z,1.09
2023-03-30T09:02:52.746Z,1.13
2023-03-30T09:03:52.750Z,1.14
2023-03-30T09:04:52.803Z,1.15
2023-03-30T09:05:53.009Z,1.16
2023-03-30T09:06:52.627Z,1.17
2023-03-30T09:07:52.990Z,1.19
2023-03-30T09:08:52.744Z,1.21
2023-03-30T09:09:55.894Z,1.23
2023-03-30T09:10:52.653Z,1.23
2023-03-30T09:11:52.642Z,1.24
2023-03-30T09:12:52.732Z,1.25
2023-03-30T09:13:53.552Z,1.27
2023-03-30T09:14:52.635Z,1.33
2023-03-30T09:15:52.985Z,1.31
2023-03-30T09:16:52.643Z,1.32
2023-03-30T09:17:52.691Z,1.31
2023-03-30T09:18:52.558Z,1.31
2023-03-30T09:19:52.551Z,1.32
2023-03-30T09:20:52.589Z,1.36
2023-03-30T09:21:54.729Z,1.36
2023-03-30T09:22:52.685Z,1.39
2023-03-30T09:23:52.718Z,1.42
2023-03-30T09:24:52.749Z,1.39
2023-03-30T09:25:53.137Z,1.41
2023-03-30T09:26:52.859Z,1.42
2023-03-30T09:27:53.003Z,1.39
2023-03-30T09:28:53.034Z,1.39
2023-03-30T09:29:53.066Z,1.42
2023-03-30T09:30:53.185Z,1.41
2023-03-30T09:31:59.021Z,1.43
2023-03-30T09:32:53.483Z,1.43
2023-03-30T09:33:54.821Z,1.43
2023-03-30T09:34:53.602Z,1.42
2023-03-30T09:35:53.234Z,1.39
2023-03-30T09:36:53.111Z,1.37
2023-03-30T09:37:53.126Z,1.40
2023-03-30T09:38:53.131Z,1.36
2023-03-30T09:39:53.047Z,1.41
2023-03-30T09:40:53.158Z,1.42
2023-03-30T09:41:53.057Z,1.41
2023-03-30T09:42:53.110Z,1.43
2023-03-30T09:43:53.128Z,1.44
2023-03-30T09:44:53.129Z,1.40
2023-03-30T09:45:53.153Z,1.42
2023-03-30T09:46:53.184Z,1.40
2023-03-30T09:47:53.260Z,1.39
2023-03-30T09:48:53.231Z,1.41
2023-03-30T09:49:53.504Z,1.42
2023-03-30T09:50:53.271Z,1.42
2023-03-30T09:51:53.304Z,1.37
2023-03-30T09:52:53.381Z,1.37
2023-03-30T09:53:53.318Z,1.37
2023-03-30T09:54:53.358Z,1.35
2023-03-30T09:55:53.537Z,1.35
2023-03-30T09:56:53.417Z,1.35
2023-03-30T09:57:53.441Z,1.37
2023-03-30T09:58:53.454Z,1.36
2023-03-30T09:59:53.468Z,1.35
2023-03-30T10:00:53.533Z,1.33
2023-03-30T10:01:53.989Z,1.32
2023-03-30T10:02:53.640Z,1.32
2023-03-30T10:03:53.836Z,1.30
2023-03-30T10:04:54.345Z,1.29
2023-03-30T10:05:56.768Z,1.31
2023-03-30T10:07:00.339Z,1.32
2023-03-30T10:07:54.602Z,1.32
2023-03-30T10:08:53.624Z,1.33
2023-03-30T10:09:53.642Z,1.30
2023-03-30T10:10:53.610Z,1.28
2023-03-30T10:11:53.618Z,1.28
2023-03-30T10:12:53.624Z,1.24
2023-03-30T10:13:55.848Z,1.24
2023-03-30T10:14:53.789Z,1.27
2023-03-30T10:15:53.912Z,1.24
2023-03-30T10:16:53.887Z,1.25
2023-03-30T10:17:54.550Z,1.23
2023-03-30T10:18:53.922Z,1.23
2023-03-30T10:20:03.631Z,1.25
2023-03-30T10:20:54.939Z,1.25
2023-03-30T10:21:54.092Z,1.25
2023-03-30T10:22:53.883Z,1.25
2023-03-30T10:23:53.925Z,1.26
2023-03-30T10:24:54.068Z,1.29
2023-03-30T10:25:53.906Z,1.30
2023-03-30T10:26:53.881Z,1.28
2023-03-30T10:27:53.859Z,1.28
2023-03-30T10:28:53.827Z,1.26
2023-03-30T10:31:12.634Z,0.50
2023-03-30T10:32:12.533Z,0.50
2023-03-30T10:33:12.605Z,0.50
2023-03-30T10:34:12.951Z,0.50
2023-03-30T10:35:12.549Z,0.50
2023-03-30T10:36:12.635Z,0.50
2023-03-30T10:37:12.546Z,0.50
2023-03-30T10:38:12.531Z,0.50
2023-03-30T10:39:12.541Z,0.50
2023-03-30T10:40:12.564Z,0.52
2023-03-30T10:41:14.478Z,0.52
2023-03-30T10:42:12.706Z,0.50
2023-03-30T10:43:12.487Z,0.51
2023-03-30T10:44:12.520Z,0.50
2023-03-30T10:45:12.515Z,0.52
2023-03-30T10:46:19.562Z,0.51
2023-03-30T10:47:16.331Z,0.51
2023-03-30T10:48:12.551Z,0.51
2023-03-30T10:49:12.508Z,0.51
2023-03-30T10:50:12.446Z,0.53
2023-03-30T10:51:12.457Z,0.51
2023-03-30T10:52:20.402Z,0.47
2023-03-30T10:53:12.417Z,0.51
2023-03-30T10:54:12.447Z,0.52
2023-03-30T10:55:12.439Z,0.52
2023-03-30T10:56:12.410Z,0.53
2023-03-30T10:57:12.548Z,0.53
2023-03-30T10:58:12.402Z,0.51
2023-03-30T10:59:12.424Z,0.51
2023-03-30T11:00:12.415Z,0.51
2023-03-30T11:01:12.457Z,0.50
2023-03-30T11:02:12.416Z,0.52
2023-03-30T11:03:12.511Z,0.55
2023-03-30T11:04:22.506Z,0.58
2023-03-30T11:05:13.357Z,0.58
2023-03-30T11:06:12.523Z,0.58
2023-03-30T11:07:12.349Z,0.58
2023-03-30T11:08:12.362Z,0.57
2023-03-30T11:09:12.370Z,0.53
2023-03-30T11:10:12.470Z,0.53
2023-03-30T11:11:12.350Z,0.53
2023-03-30T11:12:12.370Z,0.54
2023-03-30T11:13:12.363Z,0.52
2023-03-30T11:14:12.287Z,0.55
2023-03-30T11:15:12.325Z,0.54
2023-03-30T11:16:12.355Z,0.52
2023-03-30T11:17:12.441Z,0.52
2023-03-30T11:18:12.351Z,0.52
2023-03-30T11:19:12.361Z,0.55
2023-03-30T11:20:12.292Z,0.53
2023-03-30T11:21:12.252Z,0.51
2023-03-30T11:22:12.266Z,0.54
2023-03-30T11:23:12.260Z,0.51
2023-03-30T11:24:12.253Z,0.50
2023-03-30T11:25:12.305Z,0.51
2023-03-30T11:26:12.318Z,0.51
2023-03-30T11:27:12.290Z,0.50
2023-03-30T11:28:12.354Z,0.50
2023-03-30T11:29:12.375Z,0.52
2023-03-30T11:30:12.392Z,0.50
2023-03-30T11:31:12.416Z,0.51
2023-03-30T11:32:12.553Z,0.50
2023-03-30T11:33:12.577Z,0.52
2023-03-30T11:34:12.553Z,0.53
2023-03-30T11:35:12.605Z,0.51
2023-03-30T11:36:12.647Z,0.50
2023-03-30T11:37:12.674Z,0.51
2023-03-30T11:38:12.730Z,0.50
2023-03-30T11:39:25.037Z,0.51
2023-03-30T11:40:13.777Z,0.51
2023-03-30T11:41:12.753Z,0.51
2023-03-30T11:42:12.756Z,0.53
2023-03-30T11:43:12.713Z,0.54
2023-03-30T11:44:12.710Z,0.58
2023-03-30T11:45:12.740Z,0.57
2023-03-30T11:46:12.718Z,0.60
2023-03-30T11:47:12.686Z,0.58
2023-03-30T11:48:12.731Z,0.53
2023-03-30T11:49:13.440Z,0.56
2023-03-30T11:50:12.647Z,0.58
2023-03-30T11:51:12.725Z,0.56
2023-03-30T11:52:12.785Z,0.60
2023-03-30T11:53:12.825Z,0.60
2023-03-30T11:54:12.893Z,0.60
2023-03-30T11:55:12.898Z,0.57
2023-03-30T11:56:12.963Z,0.55
2023-03-30T11:57:13.075Z,0.56
2023-03-30T11:58:13.090Z,0.57
2023-03-30T11:59:13.092Z,0.56
2023-03-30T12:00:13.138Z,0.59
2023-03-30T12:01:13.200Z,0.50
2023-03-30T12:02:13.233Z,0.57
2023-03-30T12:03:13.330Z,0.57
2023-03-30T12:04:13.498Z,0.56
2023-03-30T12:05:22.435Z,0.58
2023-03-30T12:06:13.334Z,0.58
2023-03-30T12:07:13.352Z,0.58
2023-03-30T12:08:13.309Z,0.58
2023-03-30T12:09:13.302Z,0.55
2023-03-30T12:10:13.293Z,0.54
2023-03-30T12:11:13.319Z,0.51
2023-03-30T12:12:13.313Z,0.53
2023-03-30T12:13:13.280Z,0.54
2023-03-30T12:14:13.281Z,0.54
2023-03-30T12:15:13.294Z,0.52
2023-03-30T12:16:13.506Z,0.50
2023-03-30T12:17:13.263Z,0.55
2023-03-30T12:18:13.255Z,0.58
2023-03-30T12:19:13.270Z,0.57
2023-03-30T12:20:13.260Z,0.55
2023-03-30T12:21:13.228Z,0.54
2023-03-30T12:22:13.240Z,0.57
2023-03-30T12:23:13.232Z,0.50
2023-03-30T12:24:13.229Z,0.56
2023-03-30T12:25:13.199Z,0.57
2023-03-30T12:26:13.223Z,0.56
2023-03-30T12:27:13.170Z,0.51
2023-03-30T12:28:13.202Z,0.53
2023-03-30T12:30:14.216Z,0.56
2023-03-30T12:31:13.219Z,0.56
2023-03-30T12:32:13.161Z,0.57
2023-03-30T12:33:13.188Z,0.58
2023-03-30T12:34:13.159Z,0.59
2023-03-30T12:35:13.165Z,0.62
2023-03-30T12:36:13.127Z,0.61
2023-03-30T12:37:13.371Z,0.61
2023-03-30T12:38:13.140Z,0.63
2023-03-30T12:39:13.221Z,0.62
2023-03-30T12:40:13.298Z,0.62
2023-03-30T12:41:13.310Z,0.62
2023-03-30T12:42:13.347Z,0.64
2023-03-30T12:43:13.406Z,0.61
2023-03-30T12:44:13.505Z,0.61
2023-03-30T12:45:13.533Z,0.61
2023-03-30T12:46:13.676Z,0.57
2023-03-30T12:47:13.613Z,0.58
2023-03-30T12:48:13.710Z,0.61
2023-03-30T12:49:13.743Z,0.61
2023-03-30T12:50:13.769Z,0.57
2023-03-30T12:51:13.850Z,0.59
2023-03-30T12:52:13.932Z,0.59
2023-03-30T12:53:13.913Z,0.61
2023-03-30T12:54:13.956Z,0.61
2023-03-30T12:55:14.012Z,0.59
2023-03-30T12:56:14.088Z,0.60
2023-03-30T12:57:14.258Z,0.62
2023-03-30T12:58:14.198Z,0.63
2023-03-30T12:59:14.242Z,0.63
2023-03-30T13:00:14.359Z,0.60
2023-03-30T13:01:14.390Z,0.57
2023-03-30T13:02:14.427Z,0.60
2023-03-30T13:03:14.556Z,0.63
2023-03-30T13:04:14.579Z,0.63
2023-03-30T13:05:14.586Z,0.58
2023-03-30T13:06:14.624Z,0.59
2023-03-30T13:07:14.717Z,0.55
2023-03-30T13:08:14.772Z,0.56
2023-03-30T13:09:14.832Z,0.58
2023-03-30T13:10:14.894Z,0.58
2023-03-30T13:11:14.958Z,0.54
2023-03-30T13:12:15.016Z,0.52
2023-03-30T13:13:15.060Z,0.54
2023-03-30T13:14:15.124Z,0.53
2023-03-30T13:15:15.164Z,0.53
2023-03-30T13:16:15.288Z,0.51
2023-03-30T13:17:15.396Z,0.53
2023-03-30T13:18:15.357Z,0.52
2023-03-30T13:19:15.438Z,0.52
2023-03-30T13:20:28.141Z,0.51
2023-03-30T13:21:16.465Z,0.52